createdAt,value
2022-10-29T00:00:56.913Z,19.30
2022-10-29T00:03:25.223Z,19.30
2022-10-29T00:06:01.519Z,19.30
2022-10-29T00:08:31.250Z,19.30
2022-10-29T00:11:10.778Z,19.30
2022-10-29T00:13:38.576Z,19.30
2022-10-29T00:16:12.034Z,19.30
2022-10-29T00:18:39.291Z,19.30
2022-10-29T00:21:10.476Z,19.30
2022-10-29T00:23:37.766Z,19.30
2022-10-29T00:26:05.266Z,19.30
2022-10-29T00:28:32.729Z,19.30
2022-10-29T00:31:08.024Z,19.30
2022-10-29T00:33:35.271Z,19.40
2022-10-29T00:36:24.400Z,19.30
2022-10-29T00:38:51.576Z,19.30
2022-10-29T00:41:22.810Z,19.30
2022-10-29T00:43:52.219Z,19.30
2022-10-29T00:46:30.704Z,19.30
2022-10-29T00:48:59.092Z,19.30
2022-10-29T00:51:28.561Z,19.30
2022-10-29T00:54:06.329Z,19.30
2022-10-29T00:56:40.064Z,19.30
2022-10-29T00:59:09.024Z,19.30
2022-10-29T01:01:37.662Z,19.30
2022-10-29T01:04:06.162Z,19.30
2022-10-29T01:06:33.765Z,19.20
2022-10-29T01:09:01.004Z,19.20
2022-10-29T01:11:49.389Z,19.10
2022-10-29T01:14:34.114Z,19.10
2022-10-29T01:17:22.391Z,19.10
2022-10-29T01:20:20.308Z,19.10
2022-10-29T01:22:56.762Z,19.00
2022-10-29T01:26:03.038Z,19.00
2022-10-29T01:28:54.327Z,19.00
2022-10-29T01:31:36.676Z,18.90
2022-10-29T01:34:25.535Z,18.90
2022-10-29T01:37:16.071Z,18.90
2022-10-29T01:40:12.458Z,18.90
2022-10-29T01:42:46.435Z,18.90
2022-10-29T01:45:23.118Z,18.90
2022-10-29T01:48:07.055Z,18.90
2022-10-29T01:50:37.146Z,18.90
2022-10-29T01:53:05.462Z,18.90
2022-10-29T01:55:37.027Z,18.90
2022-10-29T01:58:06.274Z,18.90
2022-10-29T02:00:49.089Z,18.80
2022-10-29T02:03:23.853Z,18.80
2022-10-29T02:06:15.291Z,18.80
2022-10-29T02:08:57.481Z,18.80
2022-10-29T02:11:30.750Z,18.80
2022-10-29T02:14:14.891Z,18.80
2022-10-29T02:16:43.049Z,18.80
2022-10-29T02:19:10.304Z,18.80
2022-10-29T02:21:37.532Z,18.80
2022-10-29T02:24:05.011Z,18.70
2022-10-29T02:26:32.199Z,18.70
2022-10-29T02:28:59.390Z,18.70
2022-10-29T02:31:26.568Z,18.70
2022-10-29T02:33:53.761Z,18.70
2022-10-29T02:36:20.947Z,18.70
2022-10-29T02:38:48.144Z,18.60
2022-10-29T02:41:15.414Z,18.60
2022-10-29T02:43:42.620Z,18.60
2022-10-29T02:46:15.376Z,18.60
2022-10-29T02:48:42.904Z,18.50
2022-10-29T02:51:10.678Z,18.50
2022-10-29T02:53:38.102Z,18.50
2022-10-29T02:56:06.498Z,18.40
2022-10-29T02:58:33.876Z,18.40
2022-10-29T03:01:01.782Z,18.40
2022-10-29T03:03:28.962Z,18.40
2022-10-29T03:05:56.227Z,18.30
2022-10-29T03:08:23.583Z,18.30
2022-10-29T03:10:50.774Z,18.20
2022-10-29T03:13:18.597Z,18.20
2022-10-29T03:15:46.122Z,18.10
2022-10-29T03:18:13.454Z,18.10
2022-10-29T03:20:40.701Z,18.10
2022-10-29T03:23:07.866Z,18.10
2022-10-29T03:25:35.076Z,18.00
2022-10-29T03:28:05.408Z,18.00
2022-10-29T03:30:32.888Z,17.90
2022-10-29T03:33:00.073Z,18.00
2022-10-29T03:35:27.587Z,17.90
2022-10-29T03:37:54.814Z,17.90
2022-10-29T03:40:22.081Z,17.90
2022-10-29T03:42:49.246Z,17.90
2022-10-29T03:45:16.513Z,17.90
2022-10-29T03:47:43.659Z,17.80
2022-10-29T03:50:11.156Z,17.80
2022-10-29T03:52:38.614Z,17.80
2022-10-29T03:55:06.794Z,17.80
2022-10-29T03:57:34.170Z,17.80
2022-10-29T04:00:01.372Z,17.80
2022-10-29T04:02:28.749Z,17.80
2022-10-29T04:04:56.086Z,17.80
2022-10-29T04:07:23.277Z,17.80
2022-10-29T04:09:50.473Z,17.80
2022-10-29T04:12:17.708Z,17.80
2022-10-29T04:14:45.953Z,17.80
2022-10-29T04:17:13.242Z,17.80
2022-10-29T04:19:40.671Z,17.80
2022-10-29T04:28:37.275Z,17.80
2022-10-29T04:30:30.302Z,17.80
2022-10-29T04:32:59.497Z,17.80
2022-10-29T04:35:28.178Z,17.80
2022-10-29T04:37:55.716Z,17.80
2022-10-29T04:40:24.473Z,17.80
2022-10-29T04:42:51.831Z,17.80
2022-10-29T04:45:19.133Z,17.80
2022-10-29T04:47:46.472Z,17.80
2022-10-29T04:50:13.668Z,17.70
2022-10-29T04:52:40.941Z,17.70
2022-10-29T04:55:08.592Z,17.70
2022-10-29T04:57:35.760Z,17.70
2022-10-29T05:00:03.611Z,17.70
2022-10-29T05:02:30.871Z,17.70
2022-10-29T05:04:58.046Z,17.70
2022-10-29T05:07:25.205Z,17.70
2022-10-29T05:09:52.433Z,17.70
2022-10-29T05:12:19.632Z,17.70
2022-10-29T05:14:46.832Z,17.70
2022-10-29T05:17:14.019Z,17.70
2022-10-29T05:19:41.186Z,17.60
2022-10-29T05:22:08.355Z,17.70
2022-10-29T05:24:35.607Z,17.60
2022-10-29T05:27:05.192Z,17.60
2022-10-29T05:29:32.484Z,17.60
2022-10-29T05:31:59.712Z,17.60
2022-10-29T05:34:26.895Z,17.60
2022-10-29T05:36:54.148Z,17.60
2022-10-29T05:39:21.330Z,17.60
2022-10-29T05:41:48.602Z,17.60
2022-10-29T05:44:15.774Z,17.50
2022-10-29T05:46:42.955Z,17.50
2022-10-29T05:49:12.181Z,17.50
2022-10-29T05:51:39.390Z,17.50
2022-10-29T05:54:06.699Z,17.50
2022-10-29T05:56:33.889Z,17.50
2022-10-29T05:59:01.098Z,17.50
2022-10-29T06:01:28.374Z,17.50
2022-10-29T06:03:55.560Z,17.50
2022-10-29T06:06:22.761Z,17.50
2022-10-29T06:08:50.041Z,17.50
2022-10-29T06:11:17.231Z,17.50
2022-10-29T06:13:44.464Z,17.50
2022-10-29T06:16:11.620Z,17.50
2022-10-29T06:18:38.817Z,17.50
2022-10-29T06:21:06.125Z,17.50
2022-10-29T06:23:33.292Z,17.50
2022-10-29T06:26:03.476Z,17.50
2022-10-29T06:28:33.705Z,17.50
2022-10-29T06:31:02.884Z,17.60
2022-10-29T06:33:30.291Z,17.50
2022-10-29T06:36:01.609Z,17.50
2022-10-29T06:38:29.095Z,17.50
2022-10-29T06:40:56.535Z,17.50
2022-10-29T06:43:23.733Z,17.50
2022-10-29T06:45:51.006Z,17.50
2022-10-29T06:48:22.072Z,17.40
2022-10-29T06:50:50.875Z,17.40
2022-10-29T06:53:18.946Z,17.40
2022-10-29T06:55:46.373Z,17.40
2022-10-29T06:58:16.232Z,17.40
2022-10-29T07:00:44.353Z,17.40
2022-10-29T07:03:30.016Z,17.40
2022-10-29T07:05:58.754Z,17.40
2022-10-29T07:08:26.390Z,17.40
2022-10-29T07:10:54.399Z,17.40
2022-10-29T07:13:21.719Z,17.40
2022-10-29T07:15:49.108Z,17.30
2022-10-29T07:18:16.326Z,17.30
2022-10-29T07:20:45.239Z,17.30
2022-10-29T07:23:13.862Z,17.40
2022-10-29T07:25:41.541Z,17.40
2022-10-29T07:28:16.475Z,17.40
2022-10-29T07:30:44.991Z,17.40
2022-10-29T07:33:12.533Z,17.50
2022-10-29T07:35:40.165Z,17.50
2022-10-29T07:38:10.937Z,17.60
2022-10-29T07:40:40.671Z,17.60
2022-10-29T07:43:09.279Z,17.60
2022-10-29T07:45:36.647Z,17.70
2022-10-29T07:48:07.461Z,17.70
2022-10-29T07:50:34.783Z,17.80
2022-10-29T07:53:03.236Z,17.80
2022-10-29T07:55:30.769Z,17.80
2022-10-29T07:58:01.342Z,17.90
2022-10-29T08:00:33.749Z,17.90
2022-10-29T08:03:01.141Z,17.90
2022-10-29T08:05:29.858Z,18.00
2022-10-29T08:07:57.981Z,18.00
2022-10-29T08:10:26.206Z,18.10
2022-10-29T08:12:58.470Z,18.10
2022-10-29T08:15:27.782Z,18.20
2022-10-29T08:17:55.420Z,18.20
2022-10-29T08:20:24.518Z,18.30
2022-10-29T08:22:51.751Z,18.30
2022-10-29T08:25:19.557Z,18.30
2022-10-29T08:27:58.516Z,18.30
2022-10-29T08:30:25.706Z,18.40
2022-10-29T08:32:52.907Z,18.40
2022-10-29T08:35:20.199Z,18.30
2022-10-29T08:37:47.421Z,18.40
2022-10-29T08:40:33.528Z,18.40
2022-10-29T08:43:33.258Z,18.40
2022-10-29T08:46:00.568Z,18.40
2022-10-29T08:48:33.865Z,18.40
2022-10-29T08:51:17.134Z,18.40
2022-10-29T08:53:54.348Z,18.40
2022-10-29T08:56:40.095Z,18.40
2022-10-29T08:59:16.362Z,18.40
2022-10-29T09:01:44.304Z,18.40
2022-10-29T09:04:34.446Z,18.50
2022-10-29T09:07:37.936Z,18.50
2022-10-29T09:10:41.311Z,18.60
2022-10-29T09:13:35.909Z,18.70
2022-10-29T09:16:26.767Z,18.80
2022-10-29T09:19:10.934Z,18.80
2022-10-29T09:22:06.048Z,18.80
2022-10-29T09:25:03.221Z,18.90
2022-10-29T09:27:39.746Z,19.00
2022-10-29T09:30:12.961Z,19.00
2022-10-29T09:33:07.221Z,19.00
2022-10-29T09:35:45.320Z,19.00
2022-10-29T09:38:22.965Z,19.00
2022-10-29T09:40:50.446Z,19.10
2022-10-29T09:43:33.987Z,19.10
2022-10-29T09:46:21.535Z,19.20
2022-10-29T09:49:31.014Z,19.20
2022-10-29T09:52:06.499Z,19.30
2022-10-29T09:54:34.485Z,19.30
2022-10-29T09:57:03.425Z,19.30
2022-10-29T09:59:40.736Z,19.40
2022-10-29T10:02:38.472Z,19.50
2022-10-29T10:05:28.027Z,19.50
2022-10-29T10:08:14.509Z,19.60
2022-10-29T10:11:01.977Z,19.70
2022-10-29T10:13:50.893Z,19.80
2022-10-29T10:16:25.384Z,19.90
2022-10-29T10:18:52.686Z,19.90
2022-10-29T10:21:29.114Z,20.00
2022-10-29T10:23:58.087Z,20.00
2022-10-29T10:26:44.264Z,20.00
2022-10-29T10:29:18.965Z,20.10
2022-10-29T10:32:09.462Z,20.10
2022-10-29T10:34:39.402Z,20.20
2022-10-29T10:37:09.552Z,20.20
2022-10-29T10:39:43.456Z,20.30
2022-10-29T10:42:22.096Z,20.40
2022-10-29T10:44:53.083Z,20.40
2022-10-29T10:47:27.372Z,20.50
2022-10-29T10:50:09.152Z,20.40
2022-10-29T10:52:36.529Z,20.50
2022-10-29T10:55:24.151Z,20.50
2022-10-29T10:58:30.042Z,20.60
2022-10-29T11:01:04.015Z,20.60
2022-10-29T11:03:38.671Z,20.60
2022-10-29T11:06:24.248Z,20.70
2022-10-29T11:08:54.426Z,20.70
2022-10-29T11:11:33.239Z,20.70
2022-10-29T11:14:06.891Z,20.70
2022-10-29T11:16:44.109Z,20.70
2022-10-29T11:19:31.287Z,20.70
2022-10-29T11:22:32.135Z,20.70
2022-10-29T11:25:10.137Z,20.70
2022-10-29T11:27:55.255Z,20.80
2022-10-29T11:30:22.785Z,20.80
2022-10-29T11:33:30.270Z,20.80
2022-10-29T11:36:12.053Z,20.90
2022-10-29T11:39:07.542Z,20.90
2022-10-29T11:41:48.581Z,20.90
2022-10-29T11:44:17.992Z,21.00
2022-10-29T11:47:23.062Z,21.00
2022-10-29T11:50:29.672Z,21.10
2022-10-29T11:53:30.038Z,21.10
2022-10-29T11:56:20.105Z,21.10
2022-10-29T11:59:09.099Z,21.20
2022-10-29T12:01:58.488Z,21.20
2022-10-29T12:04:30.925Z,21.30
2022-10-29T12:07:25.242Z,21.30
2022-10-29T12:09:58.284Z,21.40
2022-10-29T12:12:29.074Z,21.50
2022-10-29T12:15:31.967Z,21.60
2022-10-29T12:18:26.669Z,21.60
2022-10-29T12:21:12.539Z,21.80
2022-10-29T12:23:48.447Z,21.80
2022-10-29T12:26:22.849Z,21.90
2022-10-29T12:29:27.848Z,22.00
2022-10-29T12:31:59.685Z,22.10
2022-10-29T12:34:37.269Z,22.20
2022-10-29T12:37:37.658Z,22.20
2022-10-29T12:40:24.717Z,22.30
2022-10-29T12:42:52.982Z,22.30
2022-10-29T12:46:06.789Z,22.30
2022-10-29T12:48:59.609Z,22.30
2022-10-29T12:51:45.640Z,22.40
2022-10-29T12:54:37.358Z,22.40
2022-10-29T12:57:18.589Z,22.40
2022-10-29T12:59:46.009Z,22.40
2022-10-29T13:02:39.215Z,22.40
2022-10-29T13:05:06.865Z,22.40
2022-10-29T13:07:34.463Z,22.40
2022-10-29T13:10:23.623Z,22.40
2022-10-29T13:13:07.256Z,22.50
2022-10-29T13:15:37.239Z,22.50
2022-10-29T13:18:28.590Z,22.50
2022-10-29T13:20:56.203Z,22.50
2022-10-29T13:23:23.517Z,22.50
2022-10-29T13:25:55.124Z,22.50
2022-10-29T13:28:22.249Z,22.50
2022-10-29T13:30:51.889Z,22.50
2022-10-29T13:33:21.854Z,22.50
2022-10-29T13:35:55.848Z,22.50
2022-10-29T13:38:57.911Z,22.50
2022-10-29T13:41:43.267Z,22.60
2022-10-29T13:44:22.872Z,22.60
2022-10-29T13:46:57.011Z,22.60
2022-10-29T13:49:36.751Z,22.60
2022-10-29T13:52:08.765Z,22.70
2022-10-29T13:54:56.753Z,22.70
2022-10-29T13:57:34.401Z,22.70
2022-10-29T14:00:10.900Z,22.70
2022-10-29T14:02:56.596Z,22.70
2022-10-29T14:05:29.957Z,22.70
2022-10-29T14:08:30.139Z,22.80
2022-10-29T14:10:59.440Z,22.80
2022-10-29T14:13:41.168Z,22.80
2022-10-29T14:16:12.137Z,22.80
2022-10-29T14:18:39.355Z,22.80
2022-10-29T14:21:14.753Z,22.90
2022-10-29T14:23:58.570Z,22.90
2022-10-29T14:26:27.244Z,22.90
2022-10-29T14:28:54.596Z,22.90
2022-10-29T14:31:25.967Z,22.80
2022-10-29T14:33:58.929Z,22.80
2022-10-29T14:36:40.362Z,22.80
2022-10-29T14:39:16.743Z,22.70
2022-10-29T14:41:45.633Z,22.70
2022-10-29T14:44:39.524Z,22.70
2022-10-29T14:47:28.974Z,22.70
2022-10-29T14:50:02.718Z,22.70
2022-10-29T14:52:39.976Z,22.70
2022-10-29T14:55:14.320Z,22.70
2022-10-29T14:57:47.463Z,22.60
2022-10-29T15:00:28.700Z,22.60
2022-10-29T15:02:57.337Z,22.50
2022-10-29T15:05:36.316Z,22.50
2022-10-29T15:08:10.873Z,22.50
2022-10-29T15:11:04.578Z,22.40
2022-10-29T15:13:34.769Z,22.40
2022-10-29T15:16:16.649Z,22.30
2022-10-29T15:18:49.030Z,22.30
2022-10-29T15:21:45.824Z,22.20
2022-10-29T15:24:20.856Z,22.20
2022-10-29T15:26:57.502Z,22.10
2022-10-29T15:29:33.445Z,22.10
2022-10-29T15:32:01.513Z,22.00
2022-10-29T15:34:36.244Z,22.00
2022-10-29T15:37:18.741Z,21.90
2022-10-29T15:40:09.089Z,21.90
2022-10-29T15:42:37.037Z,21.80
2022-10-29T15:45:07.450Z,21.80
2022-10-29T15:47:37.301Z,21.70
2022-10-29T15:50:07.347Z,21.70
2022-10-29T15:52:43.152Z,21.60
2022-10-29T15:55:26.001Z,21.50
2022-10-29T15:57:59.133Z,21.50
2022-10-29T16:00:26.692Z,21.40
2022-10-29T16:02:57.673Z,21.30
2022-10-29T16:05:25.211Z,21.30
2022-10-29T16:07:52.472Z,21.30
2022-10-29T16:10:21.324Z,21.20
2022-10-29T16:12:49.669Z,21.20
2022-10-29T16:15:20.290Z,21.10
2022-10-29T16:17:47.806Z,21.10
2022-10-29T16:20:17.922Z,21.10
2022-10-29T16:22:48.070Z,21.00
2022-10-29T16:25:22.911Z,21.00
2022-10-29T16:27:50.213Z,21.00
2022-10-29T16:30:18.701Z,20.90
2022-10-29T16:32:49.870Z,20.90
2022-10-29T16:35:23.460Z,20.80
2022-10-29T16:37:52.038Z,20.80
2022-10-29T16:40:22.185Z,20.80
2022-10-29T16:42:49.450Z,20.70
2022-10-29T16:45:23.042Z,20.70
2022-10-29T16:47:51.947Z,20.60
2022-10-29T16:50:28.074Z,20.60
2022-10-29T16:53:04.206Z,20.50
2022-10-29T16:55:31.453Z,20.50
2022-10-29T16:57:59.210Z,20.50
2022-10-29T17:00:26.810Z,20.40
2022-10-29T17:02:54.267Z,20.40
2022-10-29T17:05:21.694Z,20.40
2022-10-29T17:07:48.893Z,20.30
2022-10-29T17:10:16.490Z,20.30
2022-10-29T17:12:43.772Z,20.30
2022-10-29T17:15:11.139Z,20.20
2022-10-29T17:17:41.079Z,20.20
2022-10-29T17:20:11.330Z,20.20
2022-10-29T17:22:38.667Z,20.20
2022-10-29T17:25:06.500Z,20.10
2022-10-29T17:27:33.775Z,20.10
2022-10-29T17:30:01.078Z,20.00
2022-10-29T17:32:32.473Z,20.00
2022-10-29T17:35:00.552Z,20.00
2022-10-29T17:37:28.604Z,20.00
2022-10-29T17:39:56.061Z,19.90
2022-10-29T17:42:23.366Z,19.90
2022-10-29T17:44:50.577Z,19.90
2022-10-29T17:47:17.723Z,19.80
2022-10-29T17:49:44.953Z,19.80
2022-10-29T17:52:15.093Z,19.80
2022-10-29T17:54:42.449Z,19.80
2022-10-29T17:57:09.769Z,19.80
2022-10-29T17:59:36.963Z,19.70
2022-10-29T18:02:04.377Z,19.70
2022-10-29T18:04:31.815Z,19.70
2022-10-29T18:06:58.975Z,19.60
2022-10-29T18:09:26.211Z,19.60
2022-10-29T18:11:53.436Z,19.60
2022-10-29T18:14:20.829Z,19.60
2022-10-29T18:16:48.020Z,19.60
2022-10-29T18:19:15.366Z,19.50
2022-10-29T18:21:42.654Z,19.50
2022-10-29T18:24:10.022Z,19.50
2022-10-29T18:26:37.300Z,19.50
2022-10-29T18:29:12.334Z,19.50
2022-10-29T18:31:42.238Z,19.50
2022-10-29T18:34:09.882Z,19.40
2022-10-29T18:36:38.822Z,19.40
2022-10-29T18:39:06.568Z,19.40
2022-10-29T18:41:34.502Z,19.40
2022-10-29T18:44:02.274Z,19.40
2022-10-29T18:46:29.836Z,19.30
2022-10-29T18:48:57.103Z,19.30
2022-10-29T18:51:32.006Z,19.30
2022-10-29T18:53:59.830Z,19.30
2022-10-29T18:56:29.354Z,19.30
2022-10-29T18:58:57.742Z,19.30
2022-10-29T19:01:27.809Z,19.20
2022-10-29T19:03:57.360Z,19.20
2022-10-29T19:06:27.100Z,19.20
2022-10-29T19:08:54.665Z,19.20
2022-10-29T19:11:27.520Z,19.10
2022-10-29T19:13:57.516Z,19.10
2022-10-29T19:16:26.318Z,19.10
2022-10-29T19:18:57.824Z,19.10
2022-10-29T19:21:25.814Z,19.00
2022-10-29T19:23:57.767Z,19.00
2022-10-29T19:26:27.394Z,19.00
2022-10-29T19:28:54.985Z,19.00
2022-10-29T19:31:26.327Z,19.00
2022-10-29T19:33:58.833Z,19.00
2022-10-29T19:36:27.351Z,18.90
2022-10-29T19:38:55.116Z,18.90
2022-10-29T19:41:22.396Z,18.90
2022-10-29T19:43:49.667Z,18.90
2022-10-29T19:46:19.002Z,18.90
2022-10-29T19:48:51.741Z,18.90
2022-10-29T19:51:36.526Z,18.90
2022-10-29T19:54:05.248Z,18.80
2022-10-29T19:56:32.609Z,18.80
2022-10-29T19:58:59.817Z,18.80
2022-10-29T20:01:28.707Z,18.80
2022-10-29T20:03:57.782Z,18.80
2022-10-29T20:06:25.002Z,18.80
2022-10-29T20:08:52.320Z,18.80
2022-10-29T20:11:20.006Z,18.80
2022-10-29T20:13:47.349Z,18.70
2022-10-29T20:16:22.443Z,18.70
2022-10-29T20:18:50.996Z,18.70
2022-10-29T20:21:18.570Z,18.70
2022-10-29T20:23:47.029Z,18.70
2022-10-29T20:26:14.349Z,18.70
2022-10-29T20:28:42.038Z,18.70
2022-10-29T20:31:19.201Z,18.70
2022-10-29T20:33:51.414Z,18.70
2022-10-29T20:36:19.012Z,18.70
2022-10-29T20:38:51.018Z,18.70
2022-10-29T20:41:19.442Z,18.60
2022-10-29T20:43:52.398Z,18.60
2022-10-29T20:46:20.294Z,18.60
2022-10-29T20:48:47.555Z,18.60
2022-10-29T20:51:16.638Z,18.60
2022-10-29T20:53:44.542Z,18.60
2022-10-29T20:56:15.940Z,18.60
2022-10-29T20:58:43.957Z,18.50
2022-10-29T21:01:13.751Z,18.50
2022-10-29T21:03:41.791Z,18.50
2022-10-29T21:06:15.570Z,18.50
2022-10-29T21:08:44.647Z,18.50
2022-10-29T21:11:13.970Z,18.50
2022-10-29T21:13:41.484Z,18.50
2022-10-29T21:16:16.007Z,18.50
2022-10-29T21:18:45.143Z,18.50
2022-10-29T21:21:13.287Z,18.50
2022-10-29T21:23:40.945Z,18.50
2022-10-29T21:26:11.749Z,18.50
2022-10-29T21:28:39.348Z,18.50
2022-10-29T21:31:06.638Z,18.50
2022-10-29T21:33:33.944Z,18.50
2022-10-29T21:36:01.792Z,18.50
2022-10-29T21:38:30.923Z,18.50
2022-10-29T21:40:58.332Z,18.50
2022-10-29T21:43:25.587Z,18.50
2022-10-29T21:45:52.958Z,18.50
2022-10-29T21:48:20.706Z,18.50
2022-10-29T21:50:48.022Z,18.50
2022-10-29T21:55:44.240Z,18.50
2022-10-29T21:58:11.585Z,18.50
2022-10-29T22:00:38.759Z,18.50
2022-10-29T22:03:06.645Z,18.50
2022-10-29T22:05:33.860Z,18.50
2022-10-29T22:08:01.647Z,18.50
2022-10-29T22:10:29.188Z,18.50
2022-10-29T22:12:57.218Z,18.50
2022-10-29T22:15:24.521Z,18.50
2022-10-29T22:17:51.719Z,18.50
2022-10-29T22:20:19.098Z,18.50
2022-10-29T22:22:47.658Z,18.50
2022-10-29T22:25:15.057Z,18.50
2022-10-29T22:27:42.238Z,18.50
2022-10-29T22:30:09.960Z,18.50
2022-10-29T22:32:37.163Z,18.50
2022-10-29T22:35:04.659Z,18.50
2022-10-29T22:37:31.834Z,18.50
2022-10-29T22:39:59.051Z,18.50
2022-10-29T22:42:26.230Z,18.50
2022-10-29T22:44:53.523Z,18.50
2022-10-29T22:47:20.761Z,18.50
2022-10-29T22:49:47.959Z,18.50
2022-10-29T22:52:15.167Z,18.50
2022-10-29T22:54:42.395Z,18.50
2022-10-29T22:57:09.693Z,18.50
2022-10-29T22:59:36.973Z,18.50
2022-10-29T23:02:04.235Z,18.50
2022-10-29T23:04:31.541Z,18.50
2022-10-29T23:07:01.761Z,18.50
2022-10-29T23:09:29.485Z,18.50
2022-10-29T23:11:56.635Z,18.50
2022-10-29T23:14:23.874Z,18.50
2022-10-29T23:16:51.093Z,18.50
2022-10-29T23:19:18.682Z,18.50
2022-10-29T23:21:45.944Z,18.50
2022-10-29T23:24:13.223Z,18.50
2022-10-29T23:26:40.577Z,18.50
2022-10-29T23:29:07.772Z,18.50
2022-10-29T23:31:34.967Z,18.50
2022-10-29T23:34:02.203Z,18.50
2022-10-29T23:36:29.510Z,18.50
2022-10-29T23:38:58.609Z,18.50
2022-10-29T23:41:30.549Z,18.50
2022-10-29T23:43:58.702Z,18.50
2022-10-29T23:46:25.990Z,18.50
2022-10-29T23:48:53.264Z,18.50
2022-10-29T23:51:20.577Z,18.50
2022-10-29T23:53:50.445Z,18.50
2022-10-29T23:56:20.478Z,18.50
2022-10-29T23:58:47.709Z,18.50
